createdAt,value
2019-03-03T00:00:33.725Z,26.33
2019-03-03T00:03:02.249Z,28.40
2019-03-03T00:05:30.761Z,28.90
2019-03-03T00:08:05.677Z,28.17
2019-03-03T00:10:41.562Z,29.47
2019-03-03T00:13:24.172Z,28.90
2019-03-03T00:15:52.857Z,27.10
2019-03-03T00:18:21.463Z,29.33
2019-03-03T00:20:57.379Z,28.90
2019-03-03T00:23:26.224Z,27.23
2019-03-03T00:26:01.875Z,27.30
2019-03-03T00:28:30.731Z,27.23
2019-03-03T00:30:59.485Z,27.87
2019-03-03T00:33:34.465Z,27.60
2019-03-03T00:36:02.974Z,26.97
2019-03-03T00:38:33.568Z,28.13
2019-03-03T00:41:09.909Z,26.27
2019-03-03T00:43:46.112Z,26.43
2019-03-03T00:46:41.102Z,27.93
2019-03-03T00:49:20.658Z,25.87
2019-03-03T00:52:14.216Z,28.40
2019-03-03T00:54:50.550Z,26.40
2019-03-03T00:57:30.018Z,28.00
2019-03-03T01:00:09.555Z,24.97
2019-03-03T01:02:46.236Z,25.67
2019-03-03T01:05:16.670Z,25.60
2019-03-03T01:07:53.132Z,25.50
2019-03-03T01:10:33.591Z,24.97
2019-03-03T01:13:10.669Z,23.73
2019-03-03T01:15:47.561Z,23.50
2019-03-03T01:18:33.029Z,24.90
2019-03-03T01:21:03.368Z,23.60
2019-03-03T01:23:45.682Z,22.83
2019-03-03T01:26:14.459Z,23.40
2019-03-03T01:28:49.900Z,23.13
2019-03-03T01:31:18.693Z,23.57
2019-03-03T01:33:47.370Z,21.67
2019-03-03T01:36:23.059Z,22.03
2019-03-03T01:38:51.557Z,22.33
2019-03-03T01:41:27.053Z,22.43
2019-03-03T01:43:55.754Z,22.00
2019-03-03T01:46:24.434Z,22.80
2019-03-03T01:48:59.671Z,21.47
2019-03-03T01:51:28.338Z,19.90
2019-03-03T01:54:03.283Z,18.70
2019-03-03T01:56:31.985Z,17.33
2019-03-03T01:59:00.657Z,16.90
2019-03-03T02:01:35.898Z,15.40
2019-03-03T02:04:04.489Z,16.27
2019-03-03T02:06:39.415Z,16.17
2019-03-03T02:09:18.238Z,15.60
2019-03-03T02:12:00.854Z,15.07
2019-03-03T02:14:29.399Z,14.27
2019-03-03T02:17:12.389Z,13.40
2019-03-03T02:19:41.150Z,12.13
2019-03-03T02:22:10.039Z,13.57
2019-03-03T02:24:45.892Z,12.93
2019-03-03T02:27:14.431Z,11.80
2019-03-03T02:29:49.462Z,11.47
2019-03-03T02:32:18.111Z,12.27
2019-03-03T02:34:47.098Z,10.33
2019-03-03T02:37:22.041Z,9.83
2019-03-03T02:39:51.020Z,8.47
2019-03-03T02:42:26.247Z,8.53
2019-03-03T02:44:54.843Z,7.40
2019-03-03T02:47:23.340Z,7.30
2019-03-03T02:49:58.838Z,8.03
2019-03-03T02:52:27.464Z,7.27
2019-03-03T02:55:02.919Z,7.70
2019-03-03T02:57:31.691Z,7.20
2019-03-03T03:00:01.822Z,6.53
2019-03-03T03:02:53.648Z,6.90
2019-03-03T03:05:50.683Z,7.70
2019-03-03T03:08:20.918Z,6.83
2019-03-03T03:11:14.178Z,7.30
2019-03-03T03:13:53.638Z,6.37
2019-03-03T03:16:39.535Z,6.07
2019-03-03T03:19:12.286Z,5.97
2019-03-03T03:21:54.704Z,6.50
2019-03-03T03:24:27.888Z,5.87
2019-03-03T03:27:14.189Z,6.30
2019-03-03T03:29:47.497Z,5.80
2019-03-03T03:32:39.000Z,6.03
2019-03-03T03:35:12.780Z,5.60
2019-03-03T03:38:04.735Z,5.40
2019-03-03T03:40:40.614Z,6.43
2019-03-03T03:43:17.683Z,5.60
2019-03-03T03:46:03.035Z,6.20
2019-03-03T03:48:39.994Z,6.23
2019-03-03T03:51:10.367Z,6.50
2019-03-03T03:54:01.901Z,6.30
2019-03-03T03:56:38.050Z,6.27
2019-03-03T03:59:14.833Z,6.13
2019-03-03T04:02:00.202Z,5.60
2019-03-03T04:04:53.592Z,5.67
2019-03-03T04:07:26.542Z,6.27
2019-03-03T04:10:13.313Z,5.87
2019-03-03T04:13:06.936Z,6.13
2019-03-03T04:15:52.487Z,6.20
2019-03-03T04:18:41.588Z,6.63
2019-03-03T04:21:21.229Z,6.77
2019-03-03T04:24:07.632Z,7.40
2019-03-03T04:26:59.358Z,7.03
2019-03-03T04:29:41.555Z,7.93
2019-03-03T04:32:27.333Z,8.30
2019-03-03T04:34:57.690Z,7.63
2019-03-03T04:37:27.998Z,8.20
2019-03-03T04:40:17.191Z,8.60
2019-03-03T04:42:59.777Z,8.70
2019-03-03T04:45:46.116Z,8.33
2019-03-03T04:48:34.636Z,7.40
2019-03-03T04:51:11.870Z,8.30
2019-03-03T04:53:42.060Z,8.77
2019-03-03T04:56:25.176Z,7.70
2019-03-03T04:58:58.084Z,7.90
2019-03-03T05:01:34.927Z,7.60
2019-03-03T05:04:21.436Z,8.07
2019-03-03T05:07:08.655Z,8.00
2019-03-03T05:09:38.979Z,7.70
2019-03-03T05:12:33.857Z,8.83
2019-03-03T05:15:22.871Z,7.30
2019-03-03T05:18:08.531Z,7.00
2019-03-03T05:20:48.693Z,6.80
2019-03-03T05:23:24.740Z,7.37
2019-03-03T05:25:53.351Z,7.47
2019-03-03T05:28:22.114Z,6.63
2019-03-03T05:30:57.455Z,6.93
2019-03-03T05:33:26.349Z,6.40
2019-03-03T05:36:01.862Z,6.90
2019-03-03T05:38:30.685Z,6.67
2019-03-03T05:40:59.311Z,6.73
2019-03-03T05:43:35.328Z,6.87
2019-03-03T05:46:03.839Z,7.07
2019-03-03T05:48:38.939Z,8.07
2019-03-03T05:51:07.737Z,7.03
2019-03-03T05:53:36.461Z,7.00
2019-03-03T05:56:12.077Z,6.43
2019-03-03T05:58:40.666Z,6.70
2019-03-03T06:01:09.441Z,6.53
2019-03-03T06:03:44.351Z,6.17
2019-03-03T06:06:12.965Z,5.90
2019-03-03T06:08:48.863Z,6.47
2019-03-03T06:11:17.435Z,5.80
2019-03-03T06:13:59.214Z,5.93
2019-03-03T06:16:34.439Z,5.10
2019-03-03T06:19:10.600Z,4.77
2019-03-03T06:21:45.851Z,4.87
2019-03-03T06:24:21.144Z,5.10
2019-03-03T06:26:49.658Z,5.20
2019-03-03T06:29:18.276Z,4.90
2019-03-03T06:31:54.155Z,5.20
2019-03-03T06:34:22.716Z,4.50
2019-03-03T06:36:58.237Z,5.03
2019-03-03T06:39:26.923Z,4.83
2019-03-03T06:41:55.641Z,4.70
2019-03-03T06:44:31.054Z,4.83
2019-03-03T06:46:59.743Z,4.63
2019-03-03T06:49:35.714Z,4.07
2019-03-03T06:52:04.281Z,4.93
2019-03-03T06:54:33.172Z,4.27
2019-03-03T06:57:09.032Z,4.73
2019-03-03T06:59:37.714Z,4.93
2019-03-03T07:02:13.780Z,4.40
2019-03-03T07:04:42.284Z,4.60
2019-03-03T07:07:11.149Z,4.50
2019-03-03T07:09:47.002Z,4.47
2019-03-03T07:12:22.458Z,4.77
2019-03-03T07:15:04.745Z,4.70
2019-03-03T07:17:33.446Z,4.30
2019-03-03T07:20:01.945Z,4.60
2019-03-03T07:22:44.234Z,4.87
2019-03-03T07:25:14.182Z,4.03
2019-03-03T07:27:51.346Z,4.63
2019-03-03T07:30:20.017Z,4.57
2019-03-03T07:32:53.265Z,4.60
2019-03-03T07:35:29.266Z,4.50
2019-03-03T07:37:57.952Z,4.20
2019-03-03T07:40:32.987Z,4.80
2019-03-03T07:43:01.883Z,4.30
2019-03-03T07:45:30.675Z,4.43
2019-03-03T07:48:06.365Z,4.63
2019-03-03T07:50:35.113Z,4.37
2019-03-03T07:53:11.075Z,4.80
2019-03-03T07:55:39.864Z,5.07
2019-03-03T07:58:08.406Z,4.90
2019-03-03T08:00:44.033Z,4.83
2019-03-03T08:03:12.568Z,4.87
2019-03-03T08:05:48.321Z,5.30
2019-03-03T08:08:17.009Z,5.10
2019-03-03T08:10:45.630Z,4.77
2019-03-03T08:13:20.736Z,4.83
2019-03-03T08:15:56.175Z,5.23
2019-03-03T08:18:32.444Z,4.30
2019-03-03T08:21:01.006Z,4.83
2019-03-03T08:23:43.652Z,5.13
2019-03-03T08:26:12.176Z,4.90
2019-03-03T08:28:40.705Z,5.17
2019-03-03T08:31:16.969Z,4.60
2019-03-03T08:33:45.654Z,4.50
2019-03-03T08:36:21.510Z,5.17
2019-03-03T08:38:50.009Z,4.60
2019-03-03T08:41:18.779Z,4.43
2019-03-03T08:43:55.753Z,4.93
2019-03-03T08:46:42.393Z,5.00
2019-03-03T08:49:19.661Z,4.47
2019-03-03T08:51:53.108Z,4.33
2019-03-03T08:54:35.968Z,4.63
2019-03-03T08:57:09.477Z,4.30
2019-03-03T09:00:02.945Z,4.10
2019-03-03T09:02:45.061Z,5.50
2019-03-03T09:05:37.813Z,5.93
2019-03-03T09:08:17.364Z,4.77
2019-03-03T09:11:01.006Z,4.53
2019-03-03T09:13:34.649Z,5.57
2019-03-03T09:16:23.315Z,4.97
2019-03-03T09:19:00.619Z,4.37
2019-03-03T09:21:42.998Z,4.67
2019-03-03T09:24:13.150Z,5.03
2019-03-03T09:26:43.411Z,5.10
2019-03-03T09:29:20.248Z,4.97
2019-03-03T09:31:50.673Z,4.03
2019-03-03T09:34:32.984Z,4.97
2019-03-03T09:37:15.315Z,5.10
2019-03-03T09:40:09.822Z,4.37
2019-03-03T09:42:54.874Z,4.30
2019-03-03T09:45:46.885Z,4.87
2019-03-03T09:48:20.075Z,4.47
2019-03-03T09:50:59.207Z,4.30
2019-03-03T09:53:44.880Z,4.57
2019-03-03T09:56:27.278Z,3.70
2019-03-03T09:59:09.462Z,4.70
2019-03-03T10:01:46.345Z,4.17
2019-03-03T10:04:32.684Z,5.17
2019-03-03T10:07:15.330Z,4.50
2019-03-03T10:10:03.601Z,4.90
2019-03-03T10:12:57.834Z,4.10
2019-03-03T10:15:47.824Z,3.93
2019-03-03T10:18:31.449Z,5.27
2019-03-03T10:21:16.930Z,4.60
2019-03-03T10:23:49.827Z,4.43
2019-03-03T10:26:29.002Z,4.70
2019-03-03T10:29:15.767Z,4.40
2019-03-03T10:31:58.298Z,4.20
2019-03-03T10:34:31.052Z,5.00
2019-03-03T10:37:20.030Z,5.23
2019-03-03T10:39:52.776Z,4.90
2019-03-03T10:42:38.485Z,4.93
2019-03-03T10:45:10.964Z,5.03
2019-03-03T10:47:48.147Z,4.80
2019-03-03T10:50:33.297Z,4.33
2019-03-03T10:53:16.135Z,3.70
2019-03-03T10:55:46.378Z,4.50
2019-03-03T10:58:25.562Z,4.13
2019-03-03T11:01:04.577Z,4.60
2019-03-03T11:03:41.557Z,5.20
2019-03-03T11:06:28.415Z,4.53
2019-03-03T11:09:05.227Z,4.20
2019-03-03T11:11:44.527Z,4.67
2019-03-03T11:14:27.151Z,3.70
2019-03-03T11:17:04.435Z,4.73
2019-03-03T11:19:56.667Z,4.07
2019-03-03T11:22:44.623Z,3.87
2019-03-03T11:25:21.450Z,4.90
2019-03-03T11:27:54.287Z,3.83
2019-03-03T11:30:40.966Z,3.93
2019-03-03T11:33:27.016Z,4.00
2019-03-03T11:36:09.555Z,3.63
2019-03-03T11:38:39.841Z,4.20
2019-03-03T11:41:12.806Z,5.87
2019-03-03T11:43:55.279Z,4.30
2019-03-03T11:46:28.704Z,6.03
2019-03-03T11:49:08.652Z,5.07
2019-03-03T11:51:50.884Z,4.10
2019-03-03T11:54:33.875Z,4.30
2019-03-03T11:57:04.079Z,5.50
2019-03-03T11:59:41.493Z,5.93
2019-03-03T12:02:23.635Z,4.80
2019-03-03T12:05:03.409Z,4.50
2019-03-03T12:07:36.529Z,4.40
2019-03-03T12:10:31.236Z,4.57
2019-03-03T12:13:16.727Z,4.73
2019-03-03T12:16:02.313Z,4.00
2019-03-03T12:18:49.060Z,3.40
2019-03-03T12:21:25.765Z,3.70
2019-03-03T12:24:02.341Z,4.00
2019-03-03T12:26:32.531Z,3.83
2019-03-03T12:29:05.726Z,4.80
2019-03-03T12:31:55.034Z,4.27
2019-03-03T12:34:25.254Z,3.70
2019-03-03T12:37:05.715Z,4.43
2019-03-03T12:39:48.426Z,5.77
2019-03-03T12:42:24.968Z,5.87
2019-03-03T12:44:55.432Z,4.43
2019-03-03T12:47:38.570Z,4.80
2019-03-03T12:50:20.478Z,4.23
2019-03-03T12:52:57.433Z,4.33
2019-03-03T12:55:27.758Z,4.43
2019-03-03T12:57:58.062Z,4.53
2019-03-03T13:00:37.387Z,4.20
2019-03-03T13:03:19.241Z,3.17
2019-03-03T13:05:59.055Z,4.10
2019-03-03T13:08:47.403Z,3.77
2019-03-03T13:11:33.105Z,3.00
2019-03-03T13:14:03.285Z,3.00
2019-03-03T13:16:49.217Z,3.70
2019-03-03T13:19:32.536Z,3.40
2019-03-03T13:22:19.055Z,2.80
2019-03-03T13:25:05.546Z,4.10
2019-03-03T13:27:42.217Z,3.73
2019-03-03T13:30:26.070Z,4.10
2019-03-03T13:33:02.611Z,3.63
2019-03-03T13:35:35.725Z,3.93
2019-03-03T13:38:30.831Z,4.23
2019-03-03T13:41:17.265Z,3.63
2019-03-03T13:43:52.473Z,3.40
2019-03-03T13:46:21.160Z,4.27
2019-03-03T13:48:56.198Z,4.23
2019-03-03T13:51:25.090Z,4.20
2019-03-03T13:53:54.083Z,4.37
2019-03-03T13:56:29.524Z,4.80
2019-03-03T13:58:58.112Z,4.33
2019-03-03T14:01:32.945Z,4.70
2019-03-03T14:04:01.650Z,4.67
2019-03-03T14:06:37.689Z,4.27
2019-03-03T14:09:07.253Z,4.57
2019-03-03T14:11:35.983Z,4.27
2019-03-03T14:14:11.026Z,4.30
2019-03-03T14:16:39.702Z,4.93
2019-03-03T14:19:22.114Z,4.57
2019-03-03T14:21:57.479Z,5.30
2019-03-03T14:24:33.011Z,4.90
2019-03-03T14:27:10.316Z,4.60
2019-03-03T14:29:32.111Z,4.30
2019-03-03T14:32:07.693Z,3.73
2019-03-03T14:34:36.208Z,4.67
2019-03-03T14:37:11.794Z,3.77
2019-03-03T14:39:40.330Z,3.40
2019-03-03T14:42:15.925Z,3.80
2019-03-03T14:44:44.613Z,3.30
2019-03-03T14:47:13.310Z,3.60
2019-03-03T14:49:48.396Z,3.40
2019-03-03T14:52:16.956Z,3.97
2019-03-03T14:54:52.367Z,4.43
2019-03-03T14:57:21.149Z,4.40
2019-03-03T14:59:57.211Z,3.87
2019-03-03T15:02:25.899Z,5.40
2019-03-03T15:04:54.789Z,5.63
2019-03-03T15:07:30.540Z,4.67
2019-03-03T15:09:59.226Z,5.17
2019-03-03T15:12:35.080Z,4.50
2019-03-03T15:15:04.386Z,5.03
2019-03-03T15:17:33.162Z,5.70
2019-03-03T15:20:08.936Z,6.50
2019-03-03T15:22:44.898Z,5.43
2019-03-03T15:25:27.190Z,4.60
2019-03-03T15:27:55.876Z,3.83
2019-03-03T15:30:24.973Z,4.93
2019-03-03T15:32:59.801Z,3.90
2019-03-03T15:35:28.487Z,3.93
2019-03-03T15:37:57.380Z,4.73
2019-03-03T15:40:33.190Z,4.20
2019-03-03T15:43:01.920Z,3.40
2019-03-03T15:45:37.777Z,3.70
2019-03-03T15:48:06.462Z,4.10
2019-03-03T15:50:35.254Z,4.00
2019-03-03T15:53:11.013Z,3.70
2019-03-03T15:55:39.688Z,3.80
2019-03-03T15:58:14.928Z,3.47
2019-03-03T16:00:43.819Z,4.17
2019-03-03T16:03:18.854Z,4.13
2019-03-03T16:05:47.644Z,3.70
2019-03-03T16:08:23.515Z,3.73
2019-03-03T16:10:52.292Z,3.67
2019-03-03T16:13:20.977Z,3.63
2019-03-03T16:15:56.891Z,3.80
2019-03-03T16:18:25.526Z,3.07
2019-03-03T16:21:07.477Z,3.33
2019-03-03T16:23:43.026Z,2.90
2019-03-03T16:26:19.123Z,2.90
2019-03-03T16:28:47.810Z,3.03
2019-03-03T16:31:16.310Z,3.20
2019-03-03T16:33:51.536Z,3.20
2019-03-03T16:36:20.219Z,3.00
2019-03-03T16:38:55.572Z,3.13
2019-03-03T16:41:24.186Z,2.70
2019-03-03T16:43:52.731Z,3.00
2019-03-03T16:46:41.714Z,3.60
2019-03-03T16:49:10.478Z,3.30
2019-03-03T16:51:45.696Z,3.30
2019-03-03T16:54:14.371Z,2.77
2019-03-03T16:56:43.092Z,2.90
2019-03-03T16:59:19.051Z,3.60
2019-03-03T17:01:47.597Z,3.50
2019-03-03T17:04:23.488Z,3.47
2019-03-03T17:06:52.023Z,3.20
2019-03-03T17:09:26.925Z,2.90
2019-03-03T17:11:55.461Z,2.70
2019-03-03T17:14:24.380Z,3.30
2019-03-03T17:16:59.822Z,3.30
2019-03-03T17:19:35.063Z,3.17
2019-03-03T17:22:16.971Z,3.17
2019-03-03T17:24:45.603Z,3.10
2019-03-03T17:27:14.436Z,2.90
2019-03-03T17:29:49.692Z,3.10
2019-03-03T17:32:18.271Z,3.00
2019-03-03T17:34:54.332Z,2.90
2019-03-03T17:37:22.905Z,3.17
2019-03-03T17:39:51.796Z,3.60
2019-03-03T17:42:27.455Z,3.00
2019-03-03T17:44:55.978Z,2.73
2019-03-03T17:47:30.670Z,2.70
2019-03-03T17:49:59.260Z,2.77
2019-03-03T17:52:28.029Z,3.10
2019-03-03T17:55:03.962Z,2.87
2019-03-03T17:57:32.486Z,3.00
2019-03-03T18:00:07.985Z,2.80
2019-03-03T18:02:36.715Z,3.27
2019-03-03T18:05:06.946Z,3.00
2019-03-03T18:07:42.096Z,3.43
2019-03-03T18:10:11.884Z,3.60
2019-03-03T18:12:46.817Z,3.23
2019-03-03T18:15:16.287Z,2.97
2019-03-03T18:17:44.815Z,2.87
2019-03-03T18:20:26.391Z,3.10
2019-03-03T18:23:08.211Z,3.47
2019-03-03T18:25:43.650Z,3.53
2019-03-03T18:28:12.414Z,3.90
2019-03-03T18:30:47.918Z,4.10
2019-03-03T18:33:16.655Z,4.40
2019-03-03T18:35:51.989Z,3.93
2019-03-03T18:38:20.618Z,4.47
2019-03-03T18:40:49.479Z,4.40
2019-03-03T18:43:24.522Z,4.10
2019-03-03T18:45:53.188Z,3.83
2019-03-03T18:48:28.539Z,3.60
2019-03-03T18:50:57.321Z,4.30
2019-03-03T18:53:25.847Z,4.10
2019-03-03T18:56:01.553Z,3.73
2019-03-03T18:58:30.239Z,3.70
2019-03-03T19:01:05.566Z,4.40
2019-03-03T19:03:34.598Z,4.83
2019-03-03T19:06:03.466Z,3.70
2019-03-03T19:08:40.479Z,4.33
2019-03-03T19:11:09.002Z,4.33
2019-03-03T19:13:44.722Z,4.40
2019-03-03T19:16:13.230Z,4.37
2019-03-03T19:18:42.062Z,3.97
2019-03-03T19:21:17.200Z,4.90
2019-03-03T19:24:00.215Z,3.93
2019-03-03T19:26:36.480Z,3.80
2019-03-03T19:29:05.271Z,3.80
2019-03-03T19:31:33.831Z,3.83
2019-03-03T19:34:12.096Z,3.87
2019-03-03T19:36:40.661Z,4.00
2019-03-03T19:39:15.968Z,3.70
2019-03-03T19:41:44.641Z,3.80
2019-03-03T19:44:13.367Z,3.97
2019-03-03T19:46:49.148Z,4.10
2019-03-03T19:49:17.915Z,3.63
2019-03-03T19:51:52.742Z,3.70
2019-03-03T19:54:21.342Z,4.10
2019-03-03T19:56:49.847Z,4.00
2019-03-03T19:59:25.685Z,4.13
2019-03-03T20:01:54.239Z,3.90
2019-03-03T20:04:29.687Z,4.33
2019-03-03T20:06:58.381Z,4.63
2019-03-03T20:09:33.534Z,4.30
2019-03-03T20:12:02.314Z,3.50
2019-03-03T20:14:31.127Z,3.87
2019-03-03T20:17:06.551Z,4.07
2019-03-03T20:19:35.081Z,9.00
2019-03-03T20:22:10.088Z,3.87
2019-03-03T20:24:38.578Z,4.00
2019-03-03T20:27:20.848Z,3.70
2019-03-03T20:29:49.569Z,3.97
2019-03-03T20:32:18.425Z,4.33
2019-03-03T20:34:53.518Z,4.50
2019-03-03T20:37:22.016Z,4.00
2019-03-03T20:39:56.725Z,4.17
2019-03-03T20:42:25.451Z,4.03
2019-03-03T20:44:54.039Z,4.37
2019-03-03T20:47:30.377Z,4.50
2019-03-03T20:49:59.321Z,4.10
2019-03-03T20:52:34.478Z,4.63
2019-03-03T20:55:02.989Z,4.40
2019-03-03T20:57:31.554Z,3.90
2019-03-03T21:00:07.762Z,4.50
2019-03-03T21:02:36.455Z,4.47
2019-03-03T21:05:14.151Z,5.00
2019-03-03T21:07:56.261Z,4.27
2019-03-03T21:10:38.942Z,4.67
2019-03-03T21:13:07.666Z,4.80
2019-03-03T21:15:42.504Z,4.47
2019-03-03T21:18:11.297Z,4.47
2019-03-03T21:20:40.062Z,4.30
2019-03-03T21:23:15.710Z,3.93
2019-03-03T21:25:51.097Z,4.60
2019-03-03T21:28:27.356Z,4.37
2019-03-03T21:30:56.105Z,4.70
2019-03-03T21:33:24.692Z,4.67
2019-03-03T21:36:00.235Z,4.60
2019-03-03T21:38:28.857Z,5.00
2019-03-03T21:41:04.459Z,5.40
2019-03-03T21:43:33.028Z,4.50
2019-03-03T21:46:02.195Z,5.07
2019-03-03T21:48:40.059Z,4.40
2019-03-03T21:51:08.789Z,4.60
2019-03-03T21:53:44.076Z,4.10
2019-03-03T21:56:13.082Z,4.37
2019-03-03T21:58:41.770Z,4.10
2019-03-03T22:01:16.703Z,5.10
2019-03-03T22:03:45.320Z,5.13
2019-03-03T22:06:21.038Z,4.20
2019-03-03T22:08:49.715Z,4.67
2019-03-03T22:11:18.219Z,4.70
2019-03-03T22:14:00.049Z,4.83
2019-03-03T22:16:28.709Z,5.07
2019-03-03T22:19:04.028Z,4.70
2019-03-03T22:21:32.737Z,4.50
2019-03-03T22:24:07.497Z,4.50
2019-03-03T22:26:49.566Z,4.40
2019-03-03T22:29:18.243Z,4.57
2019-03-03T22:31:54.599Z,4.80
2019-03-03T22:34:23.151Z,4.80
2019-03-03T22:36:51.873Z,4.73
2019-03-03T22:39:27.316Z,4.57
2019-03-03T22:41:56.002Z,4.50
2019-03-03T22:44:31.653Z,4.67
2019-03-03T22:47:00.545Z,5.23
2019-03-03T22:49:29.638Z,4.53
2019-03-03T22:52:04.877Z,4.30
2019-03-03T22:54:33.774Z,5.10
2019-03-03T22:57:09.524Z,4.70
2019-03-03T22:59:38.314Z,4.50
2019-03-03T23:02:07.219Z,4.67
2019-03-03T23:04:49.612Z,4.63
2019-03-03T23:07:30.163Z,4.77
2019-03-03T23:10:24.977Z,4.70
2019-03-03T23:13:08.635Z,5.63
2019-03-03T23:15:59.223Z,5.43
2019-03-03T23:18:31.188Z,5.13
2019-03-03T23:21:23.209Z,5.37
2019-03-03T23:24:25.898Z,5.53
2019-03-03T23:27:08.006Z,5.37
2019-03-03T23:29:36.684Z,6.10
2019-03-03T23:32:12.948Z,5.20
2019-03-03T23:34:41.734Z,5.73
2019-03-03T23:37:10.318Z,5.37
2019-03-03T23:39:45.659Z,5.87
2019-03-03T23:42:14.452Z,5.20
2019-03-03T23:44:49.616Z,5.43
2019-03-03T23:47:18.243Z,4.93
2019-03-03T23:49:47.064Z,5.60
2019-03-03T23:52:22.639Z,4.80
2019-03-03T23:54:51.197Z,5.23
2019-03-03T23:57:27.053Z,5.00
2019-03-03T23:59:55.736Z,5.73
